AirNav   TITAN Aviation Fuels
 
 457 users online  

CT80 Stonington Airpark
Stonington, Connecticut, USA

GOING TO STONINGTON?


FAA INFORMATION EFFECTIVE 22 APRIL 2021

Location

FAA Identifier: CT80
Lat/Long: 41-20-50.3570N 071-53-09.2530W
41-20.839283N 071-53.154217W
41.3473214,-71.8859036
(estimated)
Elevation: 7 ft. / 2.1 m (surveyed)
Variation: 15W (1985)
From city: 2 miles NE of STONINGTON, CT
Time zone: UTC -4 (UTC -5 during Standard Time)
Zip code: 06378

Airport Operations

Airport use: Private use. Permission required prior to landing
Activation date: 12/1979
Control tower: no
ARTCC: BOSTON CENTER
FSS: BRIDGEPORT FLIGHT SERVICE STATION
Attendance: UNATNDD
Wind indicator: yes
Segmented circle: yes
Landing fee: yes

Airport Communications

WX ASOS at WST (4 nm E): 132.375 (401-596-9543)
WX ASOS at GON (7 nm W): 127.0 (860-449-8921)
WX AWOS-3PT at BID (18 nm SE): 134.775 (401-466-5495)

Nearby radio navigation aids

VOR radial/distance  VOR name  Freq  Var
GONr096/7.6GROTON VOR/DME110.8514W
ORWr172/13.5NORWICH VOR/DME110.0014W
SEYr323/17.7SANDY POINT VOR/DME117.8015W
PVDr236/30.5PROVIDENCE VOR/DME115.6014W
HTOr050/32.2HAMPTON VORTAC113.6013W
HFDr134/34.6HARTFORD VOR/DME114.9013W
MADr100/36.4MADISON VOR/DME110.4013W
PUTr197/36.5PUTNAM VOR/DME117.4014W

Airport Services

Runway Information

Runway 4/22

Dimensions: 1700 x 50 ft. / 518 x 15 m
Surface: turf
RUNWAY 4  RUNWAY 22
Traffic pattern: rightright

Airport Ownership and Management from official FAA records

Ownership: Privately-owned
Owner: MICHAEL M. CONNERY
349 ELM ST
STONINGTON, CT 06378
Phone 347-782-1258
Manager: RONALD P. YUHAS
91 SOUTH RD
GROTON, CT 06340
Phone 860-912-4866

Airport Operational Statistics

Aircraft based on the field: 2
Single engine airplanes: 2
    

Additional Remarks

FOR CD CTC PROVIDENCE APCH AT 401-738-8945, WHEN APCH CLSD CTC BOSTON ARTCC AT 603-879-6859.

Instrument Procedures

There are no published instrument procedures at CT80.

Some nearby airports with instrument procedures:

KWST - Westerly State Airport (4 nm E)
KGON - Groton-New London Airport (7 nm W)
0B8 - Elizabeth Field Airport (9 nm SW)
KMTP - Montauk Airport (16 nm S)
KBID - Block Island State Airport (18 nm SE)
 
Loc | Ops | Rwys | IFR | FBO | Links
Com | Nav | Svcs | Stats | Notes

Silver City Flying Club
 
Area around CT80 (Stonington Airpark)
 
Road maps at: MapQuest Bing Google
 
Aerial photo
No photo
 
Sectional chart

 
Airport distance calculator
Flying to Stonington Airpark? Find the distance to fly.

From to CT80

Sunrise and sunset
Times for 12-May-2021
 Local
(UTC-4)
 Zulu
(UTC)
Morning civil twilight05:0209:02
Sunrise05:3309:33
Sunset19:5523:55
Evening civil twilight20:2600:26

Current date and time
Zulu (UTC)  12-May-2021 06:33:52
Local (UTC-4)  12-May-2021 02:33:52
 
METAR
KWST 
4nm E 
120553Z AUTO VRB05KT 10SM CLR 08/M03 A3004 RMK AO2 SLP173 T00831028 10133 20083 51008
KGON 
7nm W 
120556Z AUTO 31011G17KT 10SM CLR 09/M02 A3004 RMK AO2 SLP173 T00941017 10133 20089 50009
KMTP 
17nm S 
120554Z AUTO 31008KT 11/01 A3007 RMK AO1 SLP181 T01060011 10139 20106 50014
KBID 
18nm SE 
120556Z AUTO 32011G18KT 10SM FEW085 09/M01 A3005 RMK AO2 SLP177 T00891011 10117 20089 51011
TAF
KGON 
7nm W 
120520Z 1206/1306 32009G17KT P6SM SCT100 BKN250 FM120700 31012KT P6SM SKC FM121300 31013G20KT P6SM SCT050 FM122200 30010KT P6SM SCT250
NOTAMs
Click for the latest NOTAMs
NOTAMs are issued by the DoD/FAA and will open in a separate window not controlled by AirNav.

 

 
 

Would you like to see your business listed on this page?

 If your business provides an interesting product or service to pilots, flight crews, aircraft, or users of the Stonington Airpark, you should consider listing it here.  To start the listing process, click on the button below
 
Add a business
 

Other Pages about Stonington Airpark

Update a link
 
Copyright © AirNav, LLC. All rights reserved. Privacy Policy  Contact